Time;durP1;ratioP1;P1;durP2;ratioP2;P2;SDS_P1;SDS_P2;PMS_P1;PMS_P2;Temp;Humidity;BMP_temperature;BMP_pressure;BME280_temperature;BME280_humidity;BME280_pressure;Samples;Min_cycle;Max_cycle;Signal;HPM_P1;HPM_P2
2022/05/17 00:00:13;;;;;;;13.62;7.67;;;;;;;12.29;40.77;99739.05;1737615;82;20998;-70
2022/05/17 00:02:40;;;;;;;9.83;6.35;;;;;;;12.28;41.00;99735.54;1738017;82;20881;-71
2022/05/17 00:05:08;;;;;;;9.73;5.80;;;;;;;12.28;41.01;99738.80;1734916;81;21095;-70
2022/05/17 00:07:34;;;;;;;12.43;6.58;;;;;;;12.25;40.97;99737.42;1742839;81;21255;-70
2022/05/17 00:10:01;;;;;;;10.53;5.90;;;;;;;12.21;40.95;99733.09;1751802;81;21485;-72
2022/05/17 00:12:28;;;;;;;9.95;6.95;;;;;;;12.20;40.94;99736.03;1753939;81;20994;-72
2022/05/17 00:14:54;;;;;;;12.30;7.62;;;;;;;12.18;40.93;99740.89;1739022;81;21550;-71
2022/05/17 00:17:21;;;;;;;16.07;7.17;;;;;;;12.15;41.01;99738.69;1740321;81;20975;-70
2022/05/17 00:19:49;;;;;;;9.85;5.55;;;;;;;12.13;41.06;99736.81;1755903;81;20979;-71
2022/05/17 00:22:15;;;;;;;16.85;8.28;;;;;;;12.12;40.94;99734.64;1755676;81;21575;-72
2022/05/17 00:24:42;;;;;;;12.03;6.20;;;;;;;12.12;41.01;99731.95;1743247;81;21068;-71
2022/05/17 00:27:08;;;;;;;18.12;7.25;;;;;;;12.12;41.00;99729.25;1734375;81;21091;-71
2022/05/17 00:29:35;;;;;;;16.70;5.78;;;;;;;12.13;41.04;99734.89;1723100;81;21039;-73
2022/05/17 00:32:03;;;;;;;9.40;5.42;;;;;;;12.12;41.08;99728.44;1717552;81;21957;-71
2022/05/17 00:34:31;;;;;;;13.53;6.70;;;;;;;12.11;41.01;99723.58;1722634;82;21007;-70
2022/05/17 00:36:57;;;;;;;10.03;5.78;;;;;;;12.13;41.02;99724.67;1771687;80;21033;-74
2022/05/17 00:39:24;;;;;;;11.63;7.72;;;;;;;12.12;41.19;99723.86;1742801;81;21020;-70
2022/05/17 00:41:50;;;;;;;12.10;7.65;;;;;;;12.13;41.19;99724.11;1752374;81;21135;-73
2022/05/17 00:47:28;;;;;;;24.18;10.68;;;;;;;12.15;41.14;99723.86;1736309;82;20934;-73
2022/05/17 00:50:09;;;;;;;24.37;16.37;;;;;;;12.16;41.20;99723.61;1741864;81;21523;-72
2022/05/17 00:52:42;;;;;;;22.48;12.45;;;;;;;12.15;41.12;99721.98;1739285;81;20968;-72
2022/05/17 00:55:26;;;;;;;28.17;15.05;;;;;;;12.16;41.29;99716.06;1726355;81;21596;-72
2022/05/17 00:58:18;;;;;;;24.63;13.62;;;;;;;12.16;41.26;99717.41;1732630;81;21388;-71
2022/05/17 01:01:02;;;;;;;21.45;12.40;;;;;;;12.16;41.40;99712.02;1753162;81;21091;-71
2022/05/17 01:03:26;;;;;;;28.42;15.60;;;;;;;12.14;41.46;99716.84;1754904;81;21038;-72
2022/05/17 01:05:54;;;;;;;28.10;14.83;;;;;;;12.13;41.54;99707.94;1755121;81;21075;-71
2022/05/17 01:08:22;;;;;;;26.00;16.77;;;;;;;12.14;41.61;99707.41;1755099;81;21000;-71
2022/05/17 01:10:49;;;;;;;24.67;15.50;;;;;;;12.12;41.73;99699.59;1754097;81;21142;-71
2022/05/17 01:16:03;;;;;;;26.93;14.73;;;;;;;12.13;41.86;99695.02;1748006;81;21078;-72
2022/05/17 01:18:32;;;;;;;27.13;14.60;;;;;;;12.10;41.94;99696.86;1740229;81;21060;-70
2022/05/17 01:20:59;;;;;;;29.80;14.73;;;;;;;12.07;42.05;99693.35;1744529;81;21471;-73
2022/05/17 01:23:25;;;;;;;26.97;15.72;;;;;;;12.05;42.23;99693.59;1753520;81;21132;-71
2022/05/17 01:25:52;;;;;;;30.52;16.40;;;;;;;12.00;42.32;99692.22;1754009;81;20917;-71
2022/05/17 01:28:23;;;;;;;21.55;12.85;;;;;;;11.99;42.50;99692.49;1746264;81;21486;-70
2022/05/17 01:30:50;;;;;;;30.12;16.05;;;;;;;11.98;42.92;99688.17;1727137;81;21023;-71
2022/05/17 01:33:20;;;;;;;29.35;15.88;;;;;;;11.91;42.93;99685.69;1750134;81;22557;-69
2022/05/17 01:35:47;;;;;;;21.93;14.35;;;;;;;11.87;43.09;99692.67;1738342;81;21325;-69
2022/05/17 01:38:14;;;;;;;25.50;17.02;;;;;;;11.83;43.11;99687.52;1714240;82;20893;-70
2022/05/17 01:40:40;;;;;;;22.82;13.95;;;;;;;11.80;43.14;99687.48;1718227;81;20956;-70
2022/05/17 01:43:07;;;;;;;23.83;15.15;;;;;;;11.78;43.32;99681.55;1737728;82;21025;-70
2022/05/17 01:45:34;;;;;;;19.20;14.23;;;;;;;11.76;43.35;99679.64;1748891;81;21043;-70
2022/05/17 01:48:05;;;;;;;23.00;13.35;;;;;;;11.74;43.57;99680.98;1749302;81;21011;-71
2022/05/17 01:50:32;;;;;;;24.55;14.10;;;;;;;11.70;43.68;99681.20;1749085;81;20955;-70
2022/05/17 01:52:59;;;;;;;17.48;11.43;;;;;;;11.67;43.83;99683.85;1748257;82;21010;-69
2022/05/17 01:55:25;;;;;;;22.58;11.55;;;;;;;11.64;43.93;99684.91;1747213;81;20952;-72
2022/05/17 01:57:52;;;;;;;15.53;10.00;;;;;;;11.60;44.02;99681.92;1720183;82;20994;-68
2022/05/17 02:00:21;;;;;;;19.07;11.45;;;;;;;11.58;44.24;99684.05;1719149;83;21150;-71
2022/05/17 02:02:48;;;;;;;14.00;8.90;;;;;;;11.54;44.18;99689.67;1719715;82;20987;-70
2022/05/17 02:05:16;;;;;;;13.72;8.35;;;;;;;11.51;44.33;99682.09;1719105;83;21049;-70
2022/05/17 02:07:43;;;;;;;16.02;8.10;;;;;;;11.49;44.49;99686.12;1718985;83;20904;-71
2022/05/17 02:10:10;;;;;;;12.45;7.60;;;;;;;11.45;44.42;99680.44;1747408;82;21094;-71
2022/05/17 02:12:38;;;;;;;17.07;7.20;;;;;;;11.43;44.69;99682.56;1744833;81;20987;-69
2022/05/17 02:15:07;;;;;;;9.80;6.00;;;;;;;11.40;44.75;99685.77;1748561;81;21063;-70
2022/05/17 02:17:35;;;;;;;10.05;6.97;;;;;;;11.36;44.75;99679.28;1748934;81;20987;-70
2022/05/17 02:20:07;;;;;;;13.30;7.15;;;;;;;11.32;44.97;99682.17;1747897;80;20896;-69
2022/05/17 02:22:34;;;;;;;15.85;6.70;;;;;;;11.28;45.09;99683.23;1736585;82;21045;-70
2022/05/17 02:25:01;;;;;;;10.65;6.35;;;;;;;11.24;45.04;99684.80;1717832;82;21096;-70
2022/05/17 02:27:28;;;;;;;9.48;6.42;;;;;;;11.20;45.12;99681.00;1746409;82;20943;-70
2022/05/17 02:29:55;;;;;;;10.53;5.25;;;;;;;11.18;45.24;99673.70;1748148;80;20982;-72
2022/05/17 02:32:23;;;;;;;8.83;5.45;;;;;;;11.16;45.16;99673.69;1739321;82;21513;-69
2022/05/17 02:34:51;;;;;;;9.48;5.37;;;;;;;11.15;45.34;99680.13;1748408;82;21061;-69
2022/05/17 02:37:17;;;;;;;7.60;4.50;;;;;;;11.13;45.37;99680.91;1721221;81;22501;-69
2022/05/17 02:39:47;;;;;;;8.50;5.05;;;;;;;11.10;45.36;99684.93;1716154;83;20948;-70
2022/05/17 02:42:13;;;;;;;7.33;4.47;;;;;;;11.08;45.37;99685.70;1717790;82;20994;-72
2022/05/17 02:44:41;;;;;;;9.45;5.03;;;;;;;11.05;45.49;99680.84;1716719;82;20980;-71
2022/05/17 02:47:09;;;;;;;6.72;4.35;;;;;;;11.02;45.66;99685.92;1707054;82;21015;-70
2022/05/17 02:49:36;;;;;;;6.30;4.53;;;;;;;11.00;45.69;99681.31;1716100;83;21521;-70
2022/05/17 02:52:05;;;;;;;7.15;4.47;;;;;;;10.98;45.71;99680.77;1718824;83;20984;-70
2022/05/17 02:54:31;;;;;;;6.90;4.45;;;;;;;10.97;45.81;99681.83;1726454;82;20988;-70
2022/05/17 02:56:58;;;;;;;5.20;4.15;;;;;;;10.96;45.86;99685.05;1719236;83;21045;-71
2022/05/17 02:59:24;;;;;;;10.85;4.55;;;;;;;10.94;45.79;99675.88;1719034;83;21044;-71
2022/05/17 03:01:51;;;;;;;11.83;4.70;;;;;;;10.95;45.78;99680.73;1718794;82;21043;-69
2022/05/17 03:04:17;;;;;;;8.05;4.28;;;;;;;10.95;45.70;99669.96;1692248;83;20979;-70
2022/05/17 03:06:44;;;;;;;13.25;4.75;;;;;;;10.96;45.98;99676.16;1719524;82;21501;-70
2022/05/17 03:09:13;;;;;;;11.33;5.03;;;;;;;10.94;45.86;99677.75;1719529;82;20949;-71
2022/05/17 03:11:43;;;;;;;7.75;4.33;;;;;;;10.96;46.12;99680.20;1719312;82;21005;-68
2022/05/17 03:14:14;;;;;;;8.20;4.35;;;;;;;10.95;46.03;99679.38;1719004;82;21220;-70
2022/05/17 03:16:41;;;;;;;5.87;4.00;;;;;;;10.93;46.24;99680.97;1684476;83;20956;-71
2022/05/17 03:19:09;;;;;;;6.50;3.52;;;;;;;10.91;46.42;99677.73;1689991;83;20973;-70
2022/05/17 03:21:36;;;;;;;9.38;4.00;;;;;;;10.86;46.47;99666.91;1690367;83;21505;-69
2022/05/17 03:24:04;;;;;;;9.20;3.37;;;;;;;10.82;46.46;99671.17;1690458;84;20980;-69
2022/05/17 03:26:31;;;;;;;13.62;3.65;;;;;;;10.81;46.61;99658.78;1676726;85;21059;-71
2022/05/17 03:29:01;;;;;;;5.30;3.62;;;;;;;10.83;46.49;99651.81;1687742;83;21575;-70
2022/05/17 03:31:26;;;;;;;5.47;3.85;;;;;;;10.85;46.39;99660.42;1676667;84;21517;-68
2022/05/17 03:33:53;;;;;;;6.12;3.05;;;;;;;10.85;46.59;99670.66;1685604;85;21025;-70
2022/05/17 03:36:19;;;;;;;4.95;3.40;;;;;;;10.85;46.68;99668.50;1729784;81;20992;-68
2022/05/17 03:38:47;;;;;;;5.90;3.37;;;;;;;10.85;46.71;99666.63;1745658;81;21525;-68
2022/05/17 03:41:15;;;;;;;7.28;3.15;;;;;;;10.84;46.75;99662.83;1741063;81;20946;-71
2022/05/17 03:43:43;;;;;;;5.08;4.25;;;;;;;10.87;46.85;99669.08;1753542;81;21025;-68
2022/05/17 03:46:12;;;;;;;6.67;3.80;;;;;;;10.90;46.87;99669.91;1748854;81;21006;-70
2022/05/17 03:48:39;;;;;;;3.72;2.95;;;;;;;10.92;46.88;99668.60;1755584;81;21102;-70
2022/05/17 03:51:14;;;;;;;8.18;3.75;;;;;;;10.94;47.03;99663.77;1771740;80;21110;-71
2022/05/17 03:53:42;;;;;;;6.78;3.52;;;;;;;10.99;47.00;99675.64;1759320;80;20983;-70
2022/05/17 03:56:09;;;;;;;6.90;4.08;;;;;;;10.99;47.12;99669.73;1730938;82;21116;-69
2022/05/17 03:58:37;;;;;;;6.97;3.85;;;;;;;11.01;47.15;99675.69;1749809;82;21485;-70
2022/05/17 04:01:04;;;;;;;6.58;3.55;;;;;;;11.03;47.34;99667.38;1730904;81;21068;-69
2022/05/17 04:03:33;;;;;;;5.05;3.47;;;;;;;11.03;47.36;99657.39;1729412;81;21246;-72
2022/05/17 04:06:00;;;;;;;6.45;4.10;;;;;;;11.05;47.41;99663.34;1755051;81;20982;-71
2022/05/17 04:08:26;;;;;;;6.90;3.65;;;;;;;11.06;47.41;99658.25;1754595;81;21656;-72
2022/05/17 04:10:56;;;;;;;10.25;4.12;;;;;;;11.06;47.51;99656.91;1731002;81;20991;-70
2022/05/17 04:13:29;;;;;;;9.95;3.37;;;;;;;11.07;47.50;99658.53;1751383;81;21070;-70
2022/05/17 04:15:53;;;;;;;4.83;4.33;;;;;;;11.09;47.56;99652.88;1754761;81;21070;-71
2022/05/17 04:18:19;;;;;;;6.87;3.08;;;;;;;11.10;47.52;99652.63;1755083;81;20907;-70
2022/05/17 04:20:45;;;;;;;10.10;3.30;;;;;;;11.13;47.58;99653.45;1749072;81;21526;-71
2022/05/17 04:23:13;;;;;;;5.25;2.60;;;;;;;11.15;47.47;99652.69;1741865;81;21067;-72
2022/05/17 04:25:40;;;;;;;7.75;3.17;;;;;;;11.18;47.57;99650.81;1730315;81;21071;-68
2022/05/17 04:28:06;;;;;;;8.70;3.12;;;;;;;11.19;47.49;99643.03;1754754;81;21147;-71
2022/05/17 04:30:33;;;;;;;5.75;3.37;;;;;;;11.20;47.63;99646.01;1741605;81;20976;-69
2022/05/17 04:33:01;;;;;;;4.08;2.80;;;;;;;11.20;47.61;99646.01;1752682;81;21022;-70
2022/05/17 04:35:28;;;;;;;3.50;3.20;;;;;;;11.23;47.72;99652.74;1733083;81;21005;-72
2022/05/17 04:37:54;;;;;;;5.70;3.52;;;;;;;11.25;47.82;99656.83;1735884;81;21094;-70
2022/05/17 04:40:21;;;;;;;3.72;2.50;;;;;;;11.29;47.83;99658.47;1754494;81;21955;-69
2022/05/17 04:42:50;;;;;;;8.98;5.30;;;;;;;11.32;47.89;99653.91;1723051;81;21076;-68
2022/05/17 04:45:16;;;;;;;4.62;3.27;;;;;;;11.37;47.92;99655.30;1746658;81;21524;-75
2022/05/17 04:47:44;;;;;;;6.10;2.62;;;;;;;11.41;47.86;99654.28;1772556;81;20982;-69
2022/05/17 04:50:12;;;;;;;5.33;2.80;;;;;;;11.44;48.14;99651.88;1741840;81;21491;-69
2022/05/17 04:52:39;;;;;;;4.83;2.70;;;;;;;11.48;48.09;99639.52;1742036;81;21964;-70
2022/05/17 04:55:10;;;;;;;5.12;3.02;;;;;;;11.52;48.07;99639.80;1757790;81;21021;-70
2022/05/17 04:57:38;;;;;;;6.75;2.50;;;;;;;11.59;47.94;99635.03;1742330;81;21011;-69
2022/05/17 05:00:08;;;;;;;3.87;2.15;;;;;;;11.64;47.91;99643.97;1738649;81;20987;-75
2022/05/17 05:02:35;;;;;;;5.72;3.00;;;;;;;11.67;47.76;99635.36;1741480;82;21063;-70
2022/05/17 05:05:02;;;;;;;5.05;2.77;;;;;;;11.73;47.83;99632.20;1727520;81;21104;-68
2022/05/17 05:07:31;;;;;;;5.30;2.70;;;;;;;11.78;47.78;99628.20;1716321;82;21496;-69
2022/05/17 05:09:57;;;;;;;5.85;2.85;;;;;;;11.82;47.73;99643.30;1772965;81;20942;-71
2022/05/17 05:12:24;;;;;;;3.70;2.62;;;;;;;11.86;47.69;99637.14;1740589;81;21035;-69
2022/05/17 05:14:50;;;;;;;4.42;2.50;;;;;;;11.88;47.58;99640.93;1767283;81;20997;-70
2022/05/17 05:17:16;;;;;;;5.30;3.50;;;;;;;11.89;47.49;99631.25;1764085;81;21198;-70
2022/05/17 05:19:44;;;;;;;4.90;2.85;;;;;;;11.91;47.58;99641.75;1760398;80;21432;-70
2022/05/17 05:22:11;;;;;;;5.12;2.42;;;;;;;11.92;47.37;99642.03;1766610;80;21021;-71
2022/05/17 05:24:37;;;;;;;3.65;1.90;;;;;;;11.93;47.44;99639.09;1772764;81;21068;-71
2022/05/17 05:27:06;;;;;;;4.45;2.22;;;;;;;11.95;47.42;99639.62;1772413;80;21026;-70
2022/05/17 05:29:34;;;;;;;4.95;2.33;;;;;;;11.97;47.44;99639.37;1772573;80;21116;-68
2022/05/17 05:32:01;;;;;;;4.75;3.27;;;;;;;12.01;47.49;99632.38;1761607;80;21056;-69
2022/05/17 05:34:29;;;;;;;4.65;3.55;;;;;;;12.05;47.49;99632.95;1767628;80;21503;-68
2022/05/17 05:36:56;;;;;;;7.33;2.75;;;;;;;12.13;47.50;99644.58;1755004;81;21031;-69
2022/05/17 05:39:24;;;;;;;5.55;3.20;;;;;;;12.21;47.58;99643.29;1727761;82;21068;-68
2022/05/17 05:41:52;;;;;;;5.55;2.95;;;;;;;12.31;47.29;99639.84;1743316;81;21245;-68
2022/05/17 05:44:20;;;;;;;7.22;3.08;;;;;;;12.39;47.03;99635.28;1754653;81;21027;-70
2022/05/17 05:46:47;;;;;;;5.85;2.70;;;;;;;12.43;46.87;99639.07;1749243;81;20978;-68
2022/05/17 05:49:15;;;;;;;6.08;2.92;;;;;;;12.50;46.86;99638.30;1736227;81;21027;-68
2022/05/17 05:51:42;;;;;;;5.85;2.95;;;;;;;12.55;46.83;99639.67;1740300;81;21227;-69
2022/05/17 05:54:09;;;;;;;3.87;2.42;;;;;;;12.61;46.75;99627.84;1749055;81;21154;-69
2022/05/17 05:56:38;;;;;;;4.92;2.70;;;;;;;12.71;46.83;99621.66;1747289;81;21516;-69
2022/05/17 05:59:05;;;;;;;3.35;2.85;;;;;;;12.79;46.66;99631.40;1739099;81;21505;-69
2022/05/17 06:01:32;;;;;;;7.12;2.75;;;;;;;12.86;46.15;99641.39;1761356;81;21099;-68
2022/05/17 06:04:02;;;;;;;9.73;3.33;;;;;;;12.93;45.89;99627.65;1726409;81;21012;-69
2022/05/17 06:06:30;;;;;;;5.55;2.80;;;;;;;13.00;45.65;99630.89;1735861;81;21205;-67
2022/05/17 06:08:56;;;;;;;10.63;3.45;;;;;;;13.08;45.65;99642.00;1754051;81;20991;-69
2022/05/17 06:11:23;;;;;;;4.83;3.12;;;;;;;;;;1754024;81;21027;-70
2022/05/17 06:13:50;;;;;;;9.63;3.55;;;;;;;13.24;45.71;99625.83;1748369;81;21019;-68
2022/05/17 06:16:18;;;;;;;7.25;3.90;;;;;;;13.32;45.60;99627.48;1741970;81;21108;-69
2022/05/17 06:18:44;;;;;;;6.90;3.98;;;;;;;13.41;45.36;99622.34;1731680;81;21248;-70
2022/05/17 06:21:11;;;;;;;6.25;3.65;;;;;;;13.51;45.21;99625.86;1732444;80;21068;-68
2022/05/17 06:23:37;;;;;;;8.30;3.98;;;;;;;13.60;45.29;99658.55;1786903;80;21513;-71
2022/05/17 06:26:06;;;;;;;8.63;4.58;;;;;;;13.68;45.25;99624.75;1754318;79;20956;-70
2022/05/17 06:28:33;;;;;;;9.20;5.33;;;;;;;13.76;44.88;99619.63;1732577;81;21059;-69
2022/05/17 06:31:00;;;;;;;10.58;6.17;;;;;;;13.86;44.40;99617.46;1725664;82;21134;-71
2022/05/17 06:33:29;;;;;;;11.05;5.70;;;;;;;13.95;43.84;99627.98;1725626;82;21044;-69
2022/05/17 06:35:56;;;;;;;11.45;6.45;;;;;;;14.01;43.88;99595.77;1726317;81;21004;-70
2022/05/17 06:38:22;;;;;;;12.47;5.55;;;;;;;14.08;42.81;99602.25;1750957;81;21078;-67
2022/05/17 06:40:49;;;;;;;7.80;4.92;;;;;;;14.14;42.87;99600.62;1755669;81;21034;-73
2022/05/17 06:43:16;;;;;;;12.80;4.87;;;;;;;14.20;42.97;99596.80;1755593;81;21134;-72
2022/05/17 06:45:43;;;;;;;9.88;4.90;;;;;;;14.30;42.24;99598.11;1737907;81;21570;-69
2022/05/17 06:48:10;;;;;;;6.20;4.25;;;;;;;14.41;41.82;99590.80;1753312;81;20977;-71
2022/05/17 06:50:37;;;;;;;8.45;4.12;;;;;;;14.52;40.35;99607.27;1733506;81;21068;-71
2022/05/17 06:53:07;;;;;;;7.90;3.52;;;;;;;14.61;39.52;99599.38;1748174;81;21118;-70
2022/05/17 06:55:33;;;;;;;3.22;2.85;;;;;;;14.70;40.12;99577.40;1754292;81;21161;-68
2022/05/17 06:58:00;;;;;;;7.92;3.25;;;;;;;14.81;39.47;99608.75;1755142;81;21086;-71
2022/05/17 07:00:27;;;;;;;6.35;3.47;;;;;;;14.89;39.63;99577.02;1755549;81;21105;-69
2022/05/17 07:02:53;;;;;;;6.75;2.90;;;;;;;15.00;39.33;99590.77;1741449;81;21101;-72
2022/05/17 07:05:20;;;;;;;3.92;2.22;;;;;;;15.13;37.33;99618.56;1746724;81;21063;-69
2022/05/17 07:07:46;;;;;;;5.08;2.15;;;;;;;15.23;36.17;99598.72;1754157;81;21144;-70
2022/05/17 07:13:10;;;;;;;2.17;1.82;;;;;;;15.38;35.88;99576.92;1752194;81;21117;-70
2022/05/17 07:15:40;;;;;;;5.08;2.92;;;;;;;15.45;35.46;99571.16;1728027;81;21007;-70
2022/05/17 07:18:09;;;;;;;2.67;2.15;;;;;;;15.49;35.31;99595.27;1726918;81;21079;-71
2022/05/17 07:20:37;;;;;;;8.60;4.22;;;;;;;15.53;34.85;99552.44;1725597;83;21815;-69
2022/05/17 07:23:04;;;;;;;4.45;3.02;;;;;;;15.57;35.04;99563.50;1737614;81;21015;-72
2022/05/17 07:25:33;;;;;;;7.42;2.17;;;;;;;15.63;35.49;99551.53;1744862;81;21091;-71
2022/05/17 07:28:00;;;;;;;14.18;2.37;;;;;;;15.70;34.51;99551.44;1753580;81;21067;-71
2022/05/17 07:30:27;;;;;;;1.95;1.50;;;;;;;15.80;34.16;99558.66;1753364;81;20979;-71
2022/05/17 07:32:54;;;;;;;3.67;1.37;;;;;;;15.89;33.63;99539.84;1753876;81;21171;-69
2022/05/17 07:35:22;;;;;;;4.08;1.55;;;;;;;16.03;33.35;99537.52;1755074;81;20944;-72
2022/05/17 07:37:48;;;;;;;1.85;1.15;;;;;;;16.19;33.33;99530.55;1751316;81;21524;-70
2022/05/17 07:40:15;;;;;;;2.12;1.55;;;;;;;16.27;32.57;99551.61;1748501;82;21033;-70
2022/05/17 07:42:42;;;;;;;1.67;1.20;;;;;;;16.29;32.75;99555.66;1748421;82;21015;-71
2022/05/17 07:45:11;;;;;;;2.15;1.42;;;;;;;16.32;32.84;99553.71;1748607;82;21136;-70
2022/05/17 07:47:39;;;;;;;4.15;2.55;;;;;;;16.38;33.11;99563.96;1747466;82;21090;-69
2022/05/17 07:50:09;;;;;;;3.25;1.70;;;;;;;16.41;33.38;99567.44;1748869;82;20951;-71
2022/05/17 07:52:36;;;;;;;3.60;1.35;;;;;;;16.43;33.01;99556.56;1749271;82;21035;-69
2022/05/17 07:55:04;;;;;;;5.08;1.98;;;;;;;16.43;33.05;99566.06;1748415;81;21051;-70
2022/05/17 07:57:32;;;;;;;3.20;1.55;;;;;;;16.48;33.35;99548.91;1747739;82;21136;-68
2022/05/17 07:59:58;;;;;;;2.75;1.42;;;;;;;16.53;33.50;99563.77;1749045;81;21026;-68
2022/05/17 08:02:26;;;;;;;3.72;1.50;;;;;;;16.59;33.39;99544.18;1727660;82;21007;-68
2022/05/17 08:04:55;;;;;;;2.90;1.50;;;;;;;16.63;32.26;99539.23;1748554;82;20994;-70
2022/05/17 08:07:22;;;;;;;4.78;1.40;;;;;;;16.65;32.31;99551.13;1735069;82;21055;-70
2022/05/17 08:09:50;;;;;;;2.80;1.20;;;;;;;16.69;32.63;99546.17;1749075;81;20961;-70
2022/05/17 08:12:17;;;;;;;6.20;1.10;;;;;;;16.80;32.63;99531.91;1724100;82;21007;-70
2022/05/17 08:14:44;;;;;;;2.42;1.42;;;;;;;16.93;32.28;99537.40;1730393;82;21004;-71
2022/05/17 08:17:10;;;;;;;7.87;1.35;;;;;;;17.02;32.09;99535.39;1740456;82;21498;-69
2022/05/17 08:19:38;;;;;;;3.35;1.42;;;;;;;17.04;32.26;99563.88;1713871;83;21505;-71
2022/05/17 08:22:13;;;;;;;14.30;1.80;;;;;;;17.07;32.50;99527.16;1716671;82;21154;-71
2022/05/17 08:27:36;;;;;;;1.60;1.20;;;;;;;17.06;32.28;99533.69;1725140;82;20967;-69
2022/05/17 08:30:14;;;;;;;2.60;1.32;;;;;;;17.04;32.13;99529.09;1736568;82;21548;-71
2022/05/17 08:33:17;;;;;;;4.00;2.20;;;;;;;16.91;32.61;99561.36;1749385;82;21055;-69
2022/05/17 08:35:56;;;;;;;2.08;1.87;;;;;;;16.86;32.25;99544.31;1748910;81;20998;-70
2022/05/17 08:38:31;;;;;;;4.85;2.10;;;;;;;16.83;32.89;99568.82;1753121;81;20995;-70
2022/05/17 08:41:13;;;;;;;5.17;2.62;;;;;;;16.80;33.09;99532.72;1755232;81;21488;-69
2022/05/17 08:43:57;;;;;;;2.50;1.90;;;;;;;16.81;31.86;99499.03;1731381;81;20935;-70
2022/05/17 08:46:33;;;;;;;2.22;1.42;;;;;;;16.88;32.74;99514.97;1738583;81;20979;-72
2022/05/17 08:49:21;;;;;;;5.28;2.50;;;;;;;16.97;32.92;99522.15;1739318;81;22190;-71
2022/05/17 08:52:07;;;;;;;4.72;2.17;;;;;;;16.99;32.77;99515.03;1718544;81;21154;-70
2022/05/17 08:54:56;;;;;;;5.97;3.17;;;;;;;16.99;32.41;99513.13;1755115;81;21078;-70
2022/05/17 08:57:44;;;;;;;7.65;5.53;;;;;;;16.94;32.72;99517.84;1739879;81;21048;-67
2022/05/17 09:00:23;;;;;;;7.37;4.10;;;;;;;16.90;33.02;99516.27;1751000;80;20976;-68
2022/05/17 09:03:03;;;;;;;5.53;3.27;;;;;;;16.85;33.33;99508.74;1751649;81;21153;-69
2022/05/17 09:05:37;;;;;;;6.95;2.67;;;;;;;16.87;32.95;99514.16;1770653;80;21543;-72
2022/05/17 09:08:37;;;;;;;4.58;2.75;;;;;;;16.92;33.50;99488.27;1743397;81;21057;-66
2022/05/17 09:11:25;;;;;;;5.75;3.02;;;;;;;17.03;33.46;99479.38;1750460;81;21095;-66
2022/05/17 09:14:19;;;;;;;6.17;2.58;;;;;;;17.18;32.17;99479.67;1762519;79;21485;-66
2022/05/17 09:16:49;;;;;;;9.50;4.03;;;;;;;17.26;32.09;99504.83;1751194;81;22044;-68
2022/05/17 09:19:16;;;;;;;5.12;3.25;;;;;;;17.26;32.03;99492.05;1735996;82;21520;-70
2022/05/17 09:21:45;;;;;;;9.95;3.83;;;;;;;17.24;32.50;99498.31;1740768;82;20988;-70
2022/05/17 09:24:16;;;;;;;6.08;3.22;;;;;;;17.24;32.91;99479.84;1756441;81;21155;-69
2022/05/17 09:26:52;;;;;;;10.63;2.77;;;;;;;17.29;33.02;99464.80;1746202;80;21120;-67
2022/05/17 09:29:40;;;;;;;7.67;3.72;;;;;;;17.36;32.88;99478.83;1724278;82;21523;-69
2022/05/17 09:32:11;;;;;;;9.50;3.10;;;;;;;17.39;32.69;99498.61;1747779;81;20974;-68
2022/05/17 09:34:42;;;;;;;8.05;3.27;;;;;;;17.34;32.96;99518.53;1741930;81;20976;-65
2022/05/17 09:37:19;;;;;;;4.20;3.55;;;;;;;17.27;33.33;99448.78;1744099;81;21500;-67
2022/05/17 09:39:52;;;;;;;10.75;4.10;;;;;;;17.28;33.43;99477.59;1741150;82;20999;-68
2022/05/17 09:42:30;;;;;;;7.55;3.50;;;;;;;17.31;33.04;99462.60;1726344;82;21160;-65
2022/05/17 09:44:58;;;;;;;10.45;3.92;;;;;;;17.36;33.50;99448.34;1740461;82;21035;-68
2022/05/17 09:47:31;;;;;;;3.33;2.70;;;;;;;17.50;32.68;99442.13;1718566;82;21476;-66
2022/05/17 09:53:04;;;;;;;9.18;3.77;;;;;;;17.63;32.41;99439.44;1766405;79;21119;-67
2022/05/17 09:55:33;;;;;;;18.62;4.17;;;;;;;17.67;32.42;99456.77;1726110;81;21108;-68
2022/05/17 09:58:07;;;;;;;4.90;2.42;;;;;;;17.70;32.23;99472.47;1742004;80;21108;-66
2022/05/17 10:00:42;;;;;;;9.68;3.33;;;;;;;17.68;32.12;99436.63;1742710;80;21055;-67
2022/05/17 10:03:34;;;;;;;7.70;2.77;;;;;;;17.63;32.17;99431.28;1753916;81;21094;-68
2022/05/17 10:06:16;;;;;;;4.25;2.33;;;;;;;17.60;32.41;99461.78;1727365;81;21124;-70
2022/05/17 10:08:59;;;;;;;5.53;3.20;;;;;;;17.61;32.62;99411.73;1734659;81;22066;-66
2022/05/17 10:11:28;;;;;;;6.15;3.65;;;;;;;17.76;32.28;99412.78;1762403;80;21527;-69
2022/05/17 10:14:09;;;;;;;8.90;4.10;;;;;;;17.89;31.12;99408.42;1740505;82;21020;-70
2022/05/17 10:17:09;;;;;;;17.45;5.05;;;;;;;17.91;31.48;99506.90;1764649;80;21119;-68
2022/05/17 10:19:48;;;;;;;8.53;3.85;;;;;;;17.88;31.96;99446.84;1738083;81;21090;-70
2022/05/17 10:22:47;;;;;;;6.47;3.75;;;;;;;17.90;31.57;99402.44;1753823;81;21087;-68
2022/05/17 10:25:36;;;;;;;7.08;3.30;;;;;;;17.94;31.20;99398.80;1719029;80;21056;-65
2022/05/17 10:28:18;;;;;;;12.10;4.65;;;;;;;18.06;31.09;99436.38;1747046;81;20980;-67
2022/05/17 10:30:51;;;;;;;15.55;3.85;;;;;;;18.06;31.44;99403.72;1755055;81;21112;-67
2022/05/17 10:33:39;;;;;;;10.38;2.67;;;;;;;18.05;31.51;99398.83;1743068;81;21056;-68
2022/05/17 10:36:10;;;;;;;7.35;2.58;;;;;;;18.13;31.43;99391.29;1761474;81;21233;-69
2022/05/17 10:38:41;;;;;;;6.40;3.20;;;;;;;18.25;30.29;99424.80;1765004;80;21581;-70
2022/05/17 10:41:10;;;;;;;13.70;3.35;;;;;;;18.29;30.71;99378.95;1732459;81;21004;-67
2022/05/17 10:43:41;;;;;;;13.03;5.20;;;;;;;18.32;30.84;99363.13;1741869;81;21509;-72
2022/05/17 10:46:26;;;;;;;7.00;4.70;;;;;;;18.29;30.69;99434.77;1773223;81;21022;-73
2022/05/17 10:49:15;;;;;;;5.83;2.72;;;;;;;18.23;30.99;99392.98;1716594;82;21779;-74
2022/05/17 10:51:59;;;;;;;8.58;2.87;;;;;;;18.14;31.70;99389.38;1738141;81;20985;-70
2022/05/17 10:54:48;;;;;;;6.65;2.60;;;;;;;18.16;30.70;99384.45;1691564;82;21002;-70
2022/05/17 10:57:37;;;;;;;7.80;3.33;;;;;;;18.24;31.11;99381.80;1754057;80;21054;-70
2022/05/17 11:00:21;;;;;;;12.90;3.58;;;;;;;18.24;29.80;99385.88;1749342;81;21037;-71
2022/05/17 11:03:01;;;;;;;10.88;4.28;;;;;;;18.18;29.98;99367.23;1768359;80;20950;-69
2022/05/17 11:06:13;;;;;;;9.58;4.20;;;;;;;18.16;30.23;99373.55;1767077;81;21257;-70
2022/05/17 11:09:31;;;;;;;9.75;4.47;;;;;;;18.15;30.31;99370.58;1743788;81;21000;-69
2022/05/17 11:12:06;;;;;;;11.12;4.30;;;;;;;18.16;30.66;99345.78;1741199;82;20997;-73
2022/05/17 11:14:44;;;;;;;11.73;4.05;;;;;;;18.24;30.81;99351.03;1766953;81;21053;-71
2022/05/17 11:17:54;;;;;;;6.90;3.90;;;;;;;18.26;30.35;99365.97;1742170;81;21123;-71
2022/05/17 11:20:57;;;;;;;4.90;2.62;;;;;;;18.16;30.47;99382.53;1745076;81;21202;-71
2022/05/17 11:23:41;;;;;;;8.43;2.85;;;;;;;18.09;30.89;99378.05;1742153;82;21228;-73
2022/05/17 11:26:41;;;;;;;4.53;2.95;;;;;;;18.14;30.59;99358.08;1742329;81;21088;-69
2022/05/17 11:29:48;;;;;;;5.40;2.25;;;;;;;18.19;30.82;99351.16;1742296;82;20933;-71
2022/05/17 11:32:32;;;;;;;11.30;4.53;;;;;;;18.24;30.53;99347.77;1771049;81;21874;-70
2022/05/17 11:35:05;;;;;;;9.93;4.90;;;;;;;18.34;29.04;99363.60;1771435;80;21037;-68
2022/05/17 11:37:38;;;;;;;10.48;4.90;;;;;;;18.44;28.19;99337.49;1769929;80;21658;-70
2022/05/17 11:40:10;;;;;;;7.35;4.08;;;;;;;18.49;27.78;99321.03;1748995;81;20981;-68
2022/05/17 11:45:50;;;;;;;17.77;4.40;;;;;;;18.75;27.77;99325.31;1739037;82;21253;-72
2022/05/17 11:48:21;;;;;;;11.68;3.67;;;;;;;18.93;26.48;99343.35;1760685;81;21537;-69
2022/05/17 11:50:57;;;;;;;40.90;5.55;;;;;;;19.03;26.26;99319.36;1738929;82;21481;-72
2022/05/17 11:53:30;;;;;;;8.58;4.10;;;;;;;19.04;26.57;99320.94;1742012;81;21028;-68
2022/05/17 11:56:34;;;;;;;3.77;2.37;;;;;;;19.06;26.92;99378.69;1740202;81;21031;-68
2022/05/17 11:59:18;;;;;;;6.58;2.30;;;;;;;18.93;27.13;99332.45;1734147;82;21172;-68
2022/05/17 12:01:47;;;;;;;8.05;2.17;;;;;;;18.87;26.87;99327.69;1736340;81;21121;-70
2022/05/17 12:04:36;;;;;;;8.85;2.87;;;;;;;18.90;27.54;99326.24;1744448;81;21005;-70
2022/05/17 12:07:26;;;;;;;8.30;2.80;;;;;;;18.89;26.82;99311.03;1752892;81;20944;-70
2022/05/17 12:10:11;;;;;;;10.75;3.10;;;;;;;18.90;25.62;99361.67;1743232;81;21531;-71